LFPG 180530Z 24006KT 9999 FEW018 SCT021 BKN026 17/13 Q1021 NOSIG

ElémentsDécodage
LFPG Station météo située sur l'aérodrome de PARIS Charles-de-Gaulle
180530Z émis le 18 du mois à 05h30 UTC
24006KT vent du 240°, 06 noeuds
9999 visibilité horizontale supérieure à 10 Km
FEW018 nuages rares (1/8 à 2/8) à 1800 pieds
SCT021 nuages épars (3/8 à 4/8) à 2100 pieds
BKN026 nuages morcelés (5/8 à 7/8) à 2600 pieds
17/13 température 17°C, point de rosée 13°C
 soit une humidité relative de 77%
Q1021 la pression au niveau de la mer (QNH) est de 1021 hPa
NOSIG Pas de changement significatif prévu au cours des deux heures suivant l'heure de l'observation